Time;durP1;ratioP1;P1;durP2;ratioP2;P2;SDS_P1;SDS_P2;PMS_P1;PMS_P2;Temp;Humidity;BMP_temperature;BMP_pressure;BME280_temperature;BME280_humidity;BME280_pressure;Samples;Min_cycle;Max_cycle;Signal;HPM_P1;HPM_P2
2023/05/31 00:00:41;;;;;;;7.5;4.8;;;;;;;12.36;82.33691;939.8845;;;;
2023/05/31 00:03:06;;;;;;;7.4;4.9;;;;;;;12.21;82.8125;939.9113;;;;
2023/05/31 00:05:31;;;;;;;7.8;5.1;;;;;;;12.27;82.55859;939.9048;;;;
2023/05/31 00:08:00;;;;;;;7.2;5.2;;;;;;;12.13;83.12891;939.9101;;;;
2023/05/31 00:10:34;;;;;;;7.1;4.8;;;;;;;11.98;83.99512;939.9272;;;;
2023/05/31 00:13:06;;;;;;;9.8;5.7;;;;;;;11.84;84.37891;939.955;;;;
2023/05/31 00:15:36;;;;;;;7.3;5;;;;;;;11.98;83.78711;939.912;;;;
2023/05/31 00:18:01;;;;;;;7.6;5.3;;;;;;;12.02;83.41602;939.9126;;;;
2023/05/31 00:20:33;;;;;;;9.3;4.8;;;;;;;12.12;82.53125;939.918;;;;
2023/05/31 00:23:03;;;;;;;9.5;5.6;;;;;;;11.96;83.63477;939.899;;;;
2023/05/31 00:25:31;;;;;;;9.4;5.4;;;;;;;11.95;83.38281;939.8775;;;;
2023/05/31 00:27:56;;;;;;;6;5.1;;;;;;;11.87;83.50488;939.9512;;;;
2023/05/31 00:30:21;;;;;;;6;4.8;;;;;;;11.81;83.50195;939.9592;;;;
2023/05/31 00:32:48;;;;;;;7.4;5.1;;;;;;;11.7;84.09961;939.9669;;;;
2023/05/31 00:35:14;;;;;;;8.5;5.2;;;;;;;;;;;;;
2023/05/31 00:37:41;;;;;;;7;5;;;;;;;;;;;;;
2023/05/31 00:40:06;;;;;;;6.1;5.4;;;;;;;;;;;;;
2023/05/31 00:42:34;;;;;;;6.5;4.9;;;;;;;;;;;;;
2023/05/31 00:44:59;;;;;;;6;4.9;;;;;;;;;;;;;
2023/05/31 00:47:27;;;;;;;7.6;5.3;;;;;;;;;;;;;
2023/05/31 00:49:52;;;;;;;7;5.2;;;;;;;;;;;;;
2023/05/31 00:52:17;;;;;;;7.9;5.4;;;;;;;;;;;;;
2023/05/31 00:54:45;;;;;;;6.6;4.7;;;;;;;;;;;;;
2023/05/31 00:57:10;;;;;;;7.9;5.1;;;;;;;;;;;;;
2023/05/31 00:59:36;;;;;;;8.8;5;;;;;;;;;;;;;
2023/05/31 01:02:01;;;;;;;7.6;4.7;;;;;;;;;;;;;
2023/05/31 01:04:27;;;;;;;6.5;5.1;;;;;;;;;;;;;
2023/05/31 01:06:52;;;;;;;6.8;5.1;;;;;;;;;;;;;
2023/05/31 01:09:18;;;;;;;6;4.9;;;;;;;;;;;;;
2023/05/31 01:11:43;;;;;;;7.7;5.3;;;;;;;;;;;;;
2023/05/31 01:14:08;;;;;;;6.5;5;;;;;;;;;;;;;
2023/05/31 01:16:33;;;;;;;7.2;5.1;;;;;;;;;;;;;
2023/05/31 01:19:02;;;;;;;6.8;5.2;;;;;;;;;;;;;
2023/05/31 01:21:25;;;;;;;5.8;4.8;;;;;;;;;;;;;
2023/05/31 01:23:53;;;;;;;7.8;5;;;;;;;;;;;;;
2023/05/31 01:26:18;;;;;;;9.3;5.1;;;;;;;;;;;;;
2023/05/31 01:28:42;;;;;;;6.7;5.4;;;;;;;;;;;;;
2023/05/31 01:31:07;;;;;;;8;5.1;;;;;;;;;;;;;
2023/05/31 01:33:32;;;;;;;6.6;5;;;;;;;;;;;;;
2023/05/31 01:35:58;;;;;;;6.1;4.9;;;;;;;;;;;;;
2023/05/31 01:38:23;;;;;;;7.8;5;;;;;;;;;;;;;
2023/05/31 01:40:49;;;;;;;6.4;4.8;;;;;;;;;;;;;
2023/05/31 01:43:15;;;;;;;8.2;5.5;;;;;;;;;;;;;
2023/05/31 01:45:42;;;;;;;7.4;5.1;;;;;;;;;;;;;
2023/05/31 01:48:07;;;;;;;5.9;4.8;;;;;;;;;;;;;
2023/05/31 01:50:36;;;;;;;7.9;5.4;;;;;;;;;;;;;
2023/05/31 01:53:01;;;;;;;7;5;;;;;;;;;;;;;
2023/05/31 01:55:28;;;;;;;6.9;4.9;;;;;;;;;;;;;
2023/05/31 01:57:53;;;;;;;7.4;5.4;;;;;;;;;;;;;
2023/05/31 02:00:20;;;;;;;7.8;5.3;;;;;;;;;;;;;
2023/05/31 02:02:45;;;;;;;8.2;5.3;;;;;;;;;;;;;
2023/05/31 02:05:12;;;;;;;7.9;5.5;;;;;;;;;;;;;
2023/05/31 02:07:37;;;;;;;6.5;5.1;;;;;;;;;;;;;
2023/05/31 02:10:04;;;;;;;6.6;5.2;;;;;;;;;;;;;
2023/05/31 02:12:29;;;;;;;7.8;5.5;;;;;;;;;;;;;
2023/05/31 02:14:54;;;;;;;7;5.3;;;;;;;;;;;;;
2023/05/31 02:17:23;;;;;;;11.4;5.4;;;;;;;;;;;;;
2023/05/31 02:19:46;;;;;;;7.3;5.3;;;;;;;;;;;;;
2023/05/31 02:22:09;;;;;;;7.6;5;;;;;;;;;;;;;
2023/05/31 02:24:34;;;;;;;8.2;5.3;;;;;;;;;;;;;
2023/05/31 02:26:59;;;;;;;7.5;5.3;;;;;;;;;;;;;
2023/05/31 02:29:25;;;;;;;9.3;5.3;;;;;;;;;;;;;
2023/05/31 02:31:50;;;;;;;6.1;5;;;;;;;;;;;;;
2023/05/31 02:34:18;;;;;;;7.4;5.6;;;;;;;;;;;;;
2023/05/31 02:36:41;;;;;;;8.4;5.5;;;;;;;;;;;;;
2023/05/31 02:39:06;;;;;;;7.4;5.5;;;;;;;;;;;;;
2023/05/31 02:41:31;;;;;;;7.5;5.4;;;;;;;;;;;;;
2023/05/31 02:43:56;;;;;;;9.9;5.5;;;;;;;;;;;;;
2023/05/31 02:46:22;;;;;;;8.2;5.6;;;;;;;;;;;;;
2023/05/31 02:48:47;;;;;;;10.3;5.8;;;;;;;;;;;;;
2023/05/31 02:51:13;;;;;;;7.5;5.6;;;;;;;;;;;;;
2023/05/31 02:53:38;;;;;;;8.3;5;;;;;;;;;;;;;
2023/05/31 02:56:04;;;;;;;7.5;5.2;;;;;;;;;;;;;
2023/05/31 02:58:30;;;;;;;6.9;5.1;;;;;;;;;;;;;
2023/05/31 03:00:57;;;;;;;9.7;5.2;;;;;;;;;;;;;
2023/05/31 03:03:21;;;;;;;7.8;5.2;;;;;;;;;;;;;
2023/05/31 03:05:47;;;;;;;9.8;5.3;;;;;;;;;;;;;
2023/05/31 03:08:12;;;;;;;7.5;5.6;;;;;;;;;;;;;
2023/05/31 03:10:38;;;;;;;7.6;5.5;;;;;;;;;;;;;
2023/05/31 03:13:03;;;;;;;6.9;5.1;;;;;;;;;;;;;
2023/05/31 03:15:30;;;;;;;6.6;4.9;;;;;;;;;;;;;
2023/05/31 03:17:55;;;;;;;7.1;5.4;;;;;;;;;;;;;
2023/05/31 03:20:20;;;;;;;7;5.3;;;;;;;;;;;;;
2023/05/31 03:22:45;;;;;;;7.1;5;;;;;;;;;;;;;
2023/05/31 03:25:12;;;;;;;8.8;5.2;;;;;;;;;;;;;
2023/05/31 03:27:50;;;;;;;6.8;5;;;;;;;;;;;;;
2023/05/31 03:30:16;;;;;;;8.2;5.4;;;;;;;;;;;;;
2023/05/31 03:32:41;;;;;;;7;5.4;;;;;;;;;;;;;
2023/05/31 03:35:08;;;;;;;9.2;6;;;;;;;;;;;;;
2023/05/31 03:37:33;;;;;;;6.1;5.2;;;;;;;;;;;;;
2023/05/31 03:39:58;;;;;;;6.5;5.6;;;;;;;;;;;;;
2023/05/31 03:42:23;;;;;;;9.3;5.8;;;;;;;;;;;;;
2023/05/31 03:44:50;;;;;;;8;5.4;;;;;;;;;;;;;
2023/05/31 03:47:16;;;;;;;9.3;5.8;;;;;;;;;;;;;
2023/05/31 03:49:41;;;;;;;7.3;4.9;;;;;;;;;;;;;
2023/05/31 03:52:08;;;;;;;7.7;5.4;;;;;;;;;;;;;
2023/05/31 03:54:31;;;;;;;8;5.4;;;;;;;;;;;;;
2023/05/31 03:56:59;;;;;;;7.5;5.8;;;;;;;;;;;;;
2023/05/31 03:59:23;;;;;;;7;5;;;;;;;;;;;;;
2023/05/31 04:02:36;;;;;;;6.4;5.1;;;;;;;10.61;87.73535;939.8995;;;;
2023/05/31 04:05:01;;;;;;;7.1;4.9;;;;;;;10.75;86.71387;939.9102;;;;
2023/05/31 04:07:32;;;;;;;6.9;5.1;;;;;;;10.77;86.53516;939.8427;;;;
2023/05/31 04:10:00;;;;;;;6.3;5.2;;;;;;;10.66;86.94727;939.8137;;;;
2023/05/31 04:12:25;;;;;;;7.9;5.6;;;;;;;10.26;88.36035;939.8137;;;;
2023/05/31 04:14:53;;;;;;;8.8;5.5;;;;;;;10.11;89.23242;939.8447;;;;
2023/05/31 04:17:19;;;;;;;9.3;5.5;;;;;;;10.12;89.29297;939.8687;;;;
2023/05/31 04:19:44;;;;;;;9.6;5.9;;;;;;;10.11;89.1748;939.8684;;;;
2023/05/31 04:22:09;;;;;;;8.1;5.4;;;;;;;10.07;89.03027;939.8265;;;;
2023/05/31 04:24:37;;;;;;;9.5;5.9;;;;;;;10.24;88.4043;939.8358;;;;
2023/05/31 04:27:03;;;;;;;8.7;5.4;;;;;;;10;89.27832;939.8445;;;;
2023/05/31 04:29:32;;;;;;;13.4;5.6;;;;;;;10.02;89.48926;939.8752;;;;
2023/05/31 04:31:58;;;;;;;7.6;5.4;;;;;;;10.17;88.98242;939.8311;;;;
2023/05/31 04:34:28;;;;;;;8.4;5.4;;;;;;;10.38;88.06641;939.867;;;;
2023/05/31 04:36:52;;;;;;;7.4;5.2;;;;;;;10.46;87.8418;939.8929;;;;
2023/05/31 04:39:21;;;;;;;9.1;5.9;;;;;;;10.26;89.10156;939.8655;;;;
2023/05/31 04:41:45;;;;;;;7.7;5.7;;;;;;;10.18;89.86328;939.8567;;;;
2023/05/31 04:44:15;;;;;;;13.8;6.3;;;;;;;10.29;89.91992;939.8603;;;;
2023/05/31 04:46:41;;;;;;;7.5;5.2;;;;;;;10.44;89.01367;939.8705;;;;
2023/05/31 04:49:08;;;;;;;10;6.1;;;;;;;10.6;88.4873;939.8652;;;;
2023/05/31 04:51:33;;;;;;;13.4;6.1;;;;;;;10.67;87.7832;939.8901;;;;
2023/05/31 04:54:02;;;;;;;7.8;5.2;;;;;;;10.7;87.61914;939.9128;;;;
2023/05/31 04:56:27;;;;;;;8.6;5.1;;;;;;;10.73;87.73828;939.9005;;;;
2023/05/31 04:58:53;;;;;;;8.9;5.5;;;;;;;10.68;87.89941;939.9405;;;;
2023/05/31 05:01:18;;;;;;;8.3;5.2;;;;;;;10.73;87.86621;939.8965;;;;
2023/05/31 05:03:45;;;;;;;8.5;5.7;;;;;;;11.04;88.69238;939.9362;;;;
2023/05/31 05:06:14;;;;;;;7.1;4.4;;;;;;;12.33;83.17871;939.8987;;;;
2023/05/31 05:08:38;;;;;;;5.4;3.9;;;;;;;13.3;77.05664;939.8597;;;;
2023/05/31 05:11:08;;;;;;;7.4;4.2;;;;;;;14.18;73.90723;939.8936;;;;
2023/05/31 05:13:38;;;;;;;7;3.9;;;;;;;14.69;70.76563;939.8917;;;;
2023/05/31 05:16:04;;;;;;;8.1;4.2;;;;;;;15.35;68.62305;939.829;;;;
2023/05/31 05:18:30;;;;;;;6.4;4;;;;;;;16.11;65.85059;939.8109;;;;
2023/05/31 05:20:56;;;;;;;5.7;3.9;;;;;;;16.09;65.5918;939.7734;;;;
2023/05/31 05:23:23;;;;;;;5;3.9;;;;;;;16.31;65.92676;939.7249;;;;
2023/05/31 05:25:48;;;;;;;5.4;3.6;;;;;;;17.27;61.57324;939.7238;;;;
2023/05/31 05:28:15;;;;;;;5;3.8;;;;;;;17.35;61.03809;939.7106;;;;
2023/05/31 05:30:40;;;;;;;6.1;4.2;;;;;;;18.05;59.3457;939.698;;;;
2023/05/31 05:33:08;;;;;;;8.4;4;;;;;;;18.56;56.12402;939.7458;;;;
2023/05/31 05:35:41;;;;;;;5.4;3.8;;;;;;;18.62;56.59766;939.7369;;;;
2023/05/31 05:38:13;;;;;;;5.9;3.9;;;;;;;18.73;55.48145;939.7626;;;;
2023/05/31 05:40:47;;;;;;;5;3.6;;;;;;;18.72;55.07324;939.7434;;;;
2023/05/31 05:43:18;;;;;;;7;4.2;;;;;;;19.44;53.73047;939.7037;;;;
2023/05/31 05:45:46;;;;;;;5.8;4;;;;;;;20.03;52.58887;939.6948;;;;
2023/05/31 05:48:11;;;;;;;5.6;3.9;;;;;;;20.74;49.93848;939.6616;;;;
2023/05/31 05:51:04;;;;;;;6.5;3.6;;;;;;;20.64;50.30078;939.665;;;;
2023/05/31 05:53:29;;;;;;;8.1;3.8;;;;;;;21.61;48.66699;939.6367;;;;
2023/05/31 05:55:54;;;;;;;5.4;4;;;;;;;20.74;49.37793;939.6411;;;;
2023/05/31 05:58:19;;;;;;;4.1;3.3;;;;;;;21.45;47.73633;939.4957;;;;
2023/05/31 06:00:48;;;;;;;4.2;3.3;;;;;;;21.85;48.56445;939.572;;;;
2023/05/31 06:03:17;;;;;;;4.1;3.5;;;;;;;22.04;49.10156;939.5817;;;;
2023/05/31 06:05:42;;;;;;;4.7;3.2;;;;;;;22.4;46.55957;939.5709;;;;
2023/05/31 06:08:09;;;;;;;5.9;3.2;;;;;;;22.13;45.28906;939.6122;;;;
2023/05/31 06:10:34;;;;;;;6.7;3.7;;;;;;;21.97;47.8623;939.621;;;;
2023/05/31 06:13:03;;;;;;;6.3;3.6;;;;;;;23.33;44.24707;939.6417;;;;
2023/05/31 06:15:28;;;;;;;5.3;3.6;;;;;;;23.89;42.63086;939.6255;;;;
2023/05/31 06:17:54;;;;;;;6.3;3.7;;;;;;;24.49;41.19238;939.6295;;;;
2023/05/31 06:20:20;;;;;;;5.2;3.6;;;;;;;23.81;41.51758;939.5984;;;;
2023/05/31 06:22:49;;;;;;;3.9;3;;;;;;;23.49;42.16992;939.6002;;;;
2023/05/31 06:25:13;;;;;;;6.1;3.6;;;;;;;24.61;42.2168;939.5399;;;;
2023/05/31 06:27:41;;;;;;;6.1;3.3;;;;;;;24.82;41.0332;939.5295;;;;
2023/05/31 06:30:04;;;;;;;5.5;3.6;;;;;;;25.03;41.71387;939.5797;;;;
2023/05/31 06:32:30;;;;;;;5.3;3.4;;;;;;;25.41;40.86328;939.5154;;;;
2023/05/31 06:34:56;;;;;;;5.2;3.3;;;;;;;24.83;41.14063;939.5513;;;;
2023/05/31 06:37:25;;;;;;;4.8;3.5;;;;;;;24.59;42.87598;939.5014;;;;
2023/05/31 06:39:50;;;;;;;5.2;3.2;;;;;;;25.53;39.89453;939.493;;;;
2023/05/31 06:42:21;;;;;;;4.2;3.7;;;;;;;24.84;43.38281;939.5061;;;;
2023/05/31 06:44:50;;;;;;;6.8;3.9;;;;;;;24.32;44.64063;939.4728;;;;
2023/05/31 06:47:15;;;;;;;7;3.8;;;;;;;23.24;48.70508;939.5485;;;;
2023/05/31 06:49:44;;;;;;;5.7;4;;;;;;;24.51;44.68359;939.4812;;;;
2023/05/31 06:52:20;;;;;;;5.5;3.6;;;;;;;24.87;45.80469;939.5289;;;;
2023/05/31 06:54:47;;;;;;;8;3.8;;;;;;;24.08;43.8623;939.505;;;;
2023/05/31 06:57:12;;;;;;;5.1;3.6;;;;;;;24.53;45.15625;939.5366;;;;
2023/05/31 06:59:40;;;;;;;9;3.8;;;;;;;24.16;45.60156;939.5178;;;;
2023/05/31 07:02:05;;;;;;;6.9;3.9;;;;;;;24.8;41.97559;939.4636;;;;
2023/05/31 07:04:35;;;;;;;5.1;3.6;;;;;;;22.74;47.24023;939.4844;;;;
2023/05/31 07:07:05;;;;;;;6.2;3.7;;;;;;;23.16;48.47168;939.4553;;;;
2023/05/31 07:09:28;;;;;;;5.5;3.7;;;;;;;23.65;45.82031;939.5175;;;;
2023/05/31 07:12:00;;;;;;;5.6;3.6;;;;;;;23.39;48.36816;939.5527;;;;
2023/05/31 07:14:25;;;;;;;5.6;3.4;;;;;;;22.75;46.31445;939.462;;;;
2023/05/31 07:16:56;;;;;;;7.2;3.6;;;;;;;22.98;48.01758;939.5453;;;;
2023/05/31 07:19:24;;;;;;;6.4;3.8;;;;;;;24.22;44.70117;939.4469;;;;
2023/05/31 07:21:49;;;;;;;5.3;3.5;;;;;;;25.93;41.70313;939.4041;;;;
2023/05/31 07:24:18;;;;;;;6;3.9;;;;;;;25.88;42.69141;939.4009;;;;
2023/05/31 07:26:47;;;;;;;6;3.4;;;;;;;26.22;41.79004;939.4275;;;;
2023/05/31 07:29:13;;;;;;;6.6;3.7;;;;;;;24.65;44.67285;939.4009;;;;
2023/05/31 07:31:40;;;;;;;5.4;3.7;;;;;;;22.87;46.50391;939.368;;;;
2023/05/31 07:34:05;;;;;;;5.8;3.4;;;;;;;23.12;47.90332;939.3723;;;;
2023/05/31 07:36:33;;;;;;;4.3;3.5;;;;;;;23.56;46.86914;939.4294;;;;
2023/05/31 07:38:59;;;;;;;5.1;3.8;;;;;;;23.8;47.80078;939.3961;;;;
2023/05/31 07:41:27;;;;;;;5.6;3.5;;;;;;;23.44;47.93945;939.3525;;;;
2023/05/31 07:43:54;;;;;;;4.6;3.2;;;;;;;24.7;44.60742;939.3259;;;;
2023/05/31 07:46:21;;;;;;;5.5;3.5;;;;;;;25.44;41.99902;939.3188;;;;
2023/05/31 07:48:46;;;;;;;5.2;3.7;;;;;;;24.54;45.66406;939.3148;;;;
2023/05/31 07:51:14;;;;;;;4.8;3.5;;;;;;;26.43;41.02734;939.3003;;;;
2023/05/31 07:53:39;;;;;;;4.2;3.5;;;;;;;27.24;39.66699;939.3614;;;;
2023/05/31 07:56:05;;;;;;;5.5;3.7;;;;;;;26.04;41.87988;939.2396;;;;
2023/05/31 07:58:30;;;;;;;4.5;3.3;;;;;;;25.43;44.52734;939.2186;;;;
2023/05/31 08:00:57;;;;;;;7.6;4.4;;;;;;;26.73;40.72363;939.2026;;;;
2023/05/31 08:03:22;;;;;;;5.9;3.5;;;;;;;27.26;39.14648;939.2089;;;;
2023/05/31 08:05:53;;;;;;;4.7;3.6;;;;;;;27.39;39.25293;939.155;;;;
2023/05/31 08:08:21;;;;;;;5.5;3.6;;;;;;;28.1;37.10547;939.1635;;;;
2023/05/31 08:10:46;;;;;;;5.5;4.1;;;;;;;28.53;36.33105;939.1217;;;;
2023/05/31 08:13:15;;;;;;;4.7;3.8;;;;;;;25.67;43.99512;939.0977;;;;
2023/05/31 08:15:40;;;;;;;5.7;3.6;;;;;;;25.65;42.72754;939.0581;;;;
2023/05/31 08:18:09;;;;;;;4.6;3.3;;;;;;;26.06;42.92188;939.0496;;;;
2023/05/31 08:20:34;;;;;;;3.7;3.1;;;;;;;26.38;40.07617;938.9975;;;;
2023/05/31 08:22:59;;;;;;;6.6;3.6;;;;;;;26.22;42.54785;939.0172;;;;
2023/05/31 08:25:26;;;;;;;6.7;3.5;;;;;;;26.4;42.89551;939.0709;;;;
2023/05/31 08:27:57;;;;;;;5.8;3.6;;;;;;;26.74;41.375;939.071;;;;
2023/05/31 08:30:22;;;;;;;5;3.5;;;;;;;25.87;43.06836;939.0228;;;;
2023/05/31 08:32:50;;;;;;;5.1;3.3;;;;;;;26.55;40.30371;939.03;;;;
2023/05/31 08:35:21;;;;;;;5.1;3.7;;;;;;;27.65;38.17285;939.0254;;;;
2023/05/31 08:37:52;;;;;;;5.7;3.6;;;;;;;27.89;39.1543;939.009;;;;
2023/05/31 08:40:17;;;;;;;6.7;3.7;;;;;;;26.82;41.08789;939.0388;;;;
2023/05/31 08:42:46;;;;;;;6.5;4.2;;;;;;;26.31;41.58496;938.9885;;;;
2023/05/31 08:45:14;;;;;;;5.6;3.8;;;;;;;27.1;39.83301;938.9963;;;;
2023/05/31 08:47:40;;;;;;;5.2;3.6;;;;;;;27.59;39.38965;939.007;;;;
2023/05/31 08:50:08;;;;;;;5.1;3.7;;;;;;;26.77;40.86914;938.9867;;;;
2023/05/31 08:52:34;;;;;;;7.2;4.2;;;;;;;26.92;39.41309;938.9705;;;;
2023/05/31 08:54:59;;;;;;;5;3.7;;;;;;;24.86;46.20313;938.8909;;;;
2023/05/31 08:57:24;;;;;;;4.8;3.7;;;;;;;25.6;43.66895;938.8703;;;;
2023/05/31 08:59:55;;;;;;;5.6;3.9;;;;;;;25.2;45.25977;938.8856;;;;
2023/05/31 09:02:20;;;;;;;5.3;3.6;;;;;;;25.81;42.17676;938.8751;;;;
2023/05/31 09:04:46;;;;;;;5.9;3.9;;;;;;;24.67;46.25586;938.8649;;;;
2023/05/31 09:07:11;;;;;;;6.6;4;;;;;;;24.59;46.07031;938.9307;;;;
2023/05/31 09:09:37;;;;;;;5.9;3.8;;;;;;;23.58;50.02344;938.9481;;;;
2023/05/31 09:12:03;;;;;;;7.4;3.3;;;;;;;25.82;43.08789;938.872;;;;
2023/05/31 09:14:29;;;;;;;6.7;4;;;;;;;24.23;47.69336;938.8697;;;;
2023/05/31 09:16:54;;;;;;;7.9;4.1;;;;;;;23.81;48.07324;938.8766;;;;
2023/05/31 09:19:21;;;;;;;8.3;4;;;;;;;23.03;52.62988;938.9003;;;;
2023/05/31 09:21:47;;;;;;;6.8;3.8;;;;;;;23.29;50.67285;938.8923;;;;
2023/05/31 09:24:12;;;;;;;6;4.3;;;;;;;23.48;50.14063;938.8464;;;;
2023/05/31 09:26:41;;;;;;;6.9;4.1;;;;;;;25.36;44.11816;938.8013;;;;
2023/05/31 09:29:05;;;;;;;6.3;3.9;;;;;;;24.49;50.11426;938.759;;;;
2023/05/31 09:31:32;;;;;;;7.5;4.3;;;;;;;24.21;47.38574;938.7539;;;;
2023/05/31 09:33:57;;;;;;;4.8;4;;;;;;;22.85;50.85742;938.7681;;;;
2023/05/31 09:36:25;;;;;;;7.5;4.1;;;;;;;22.59;53.64453;938.7377;;;;
2023/05/31 09:38:54;;;;;;;4.7;3.6;;;;;;;22.79;50.06348;938.6575;;;;
2023/05/31 09:41:19;;;;;;;6.8;4.3;;;;;;;22.83;53.50977;938.7614;;;;
2023/05/31 09:43:46;;;;;;;5.4;4.1;;;;;;;23.31;50.98047;938.6511;;;;
2023/05/31 09:46:12;;;;;;;4.6;3.3;;;;;;;24.29;47.71191;938.5887;;;;
2023/05/31 09:48:40;;;;;;;5.5;3.9;;;;;;;24.88;45.84082;938.577;;;;
2023/05/31 09:51:05;;;;;;;5.6;3.8;;;;;;;25.23;44.97852;938.512;;;;
2023/05/31 09:53:32;;;;;;;7.5;4.3;;;;;;;25.48;43.61133;938.5257;;;;
2023/05/31 09:55:57;;;;;;;6.5;4.1;;;;;;;23.95;48.00684;938.5335;;;;
2023/05/31 09:58:22;;;;;;;5.9;4.1;;;;;;;24.11;47.61035;938.5571;;;;
2023/05/31 10:00:49;;;;;;;6.9;3.9;;;;;;;23.88;48.49219;938.5251;;;;
2023/05/31 10:03:14;;;;;;;6.3;3.7;;;;;;;24.54;46.50098;938.5151;;;;
2023/05/31 10:05:41;;;;;;;7.9;4.2;;;;;;;23.61;52.14355;938.548;;;;
2023/05/31 10:08:06;;;;;;;6.4;4.1;;;;;;;23.13;52.89941;938.4384;;;;
2023/05/31 10:10:38;;;;;;;7.3;3.9;;;;;;;22.93;51.7832;938.5035;;;;
2023/05/31 10:13:04;;;;;;;8.2;4;;;;;;;23.16;51.44531;938.4334;;;;
2023/05/31 10:15:34;;;;;;;8.3;4.2;;;;;;;22.95;50.86816;938.3925;;;;
2023/05/31 10:18:00;;;;;;;5.8;4;;;;;;;22.82;51.5;938.3506;;;;
2023/05/31 10:20:25;;;;;;;6.2;3.9;;;;;;;23.32;50.1123;938.4177;;;;
2023/05/31 10:22:50;;;;;;;4.8;3.5;;;;;;;23.83;48.2041;938.3769;;;;
2023/05/31 10:25:15;;;;;;;6;3.7;;;;;;;24.33;47.03418;938.4279;;;;
2023/05/31 10:27:40;;;;;;;9.2;3.8;;;;;;;24.52;47.24121;938.3801;;;;
2023/05/31 10:30:05;;;;;;;6.6;3.8;;;;;;;24.05;49.75781;938.39;;;;
2023/05/31 10:32:36;;;;;;;7;3.7;;;;;;;24.4;46.65137;938.3938;;;;
2023/05/31 10:35:01;;;;;;;6.3;3.6;;;;;;;23.95;47.72266;938.3287;;;;
2023/05/31 10:37:26;;;;;;;5;3.7;;;;;;;23.16;52.53906;938.3226;;;;
2023/05/31 10:39:54;;;;;;;5.7;3.5;;;;;;;22.56;51.96191;938.3907;;;;
2023/05/31 10:42:21;;;;;;;7.5;3.6;;;;;;;22.46;52.25684;938.3641;;;;
2023/05/31 10:44:49;;;;;;;5.8;3.5;;;;;;;22.49;54.40723;938.2827;;;;
2023/05/31 10:47:13;;;;;;;4.8;3.3;;;;;;;22.69;53.87988;938.2523;;;;
2023/05/31 10:49:39;;;;;;;8.1;4.1;;;;;;;22.47;51.54199;938.1822;;;;
2023/05/31 10:52:04;;;;;;;5.8;3.8;;;;;;;22.48;51.95313;938.2319;;;;
2023/05/31 10:54:32;;;;;;;7.9;3.9;;;;;;;22.69;53.63281;938.1514;;;;
2023/05/31 10:57:00;;;;;;;8.1;3.8;;;;;;;22.89;50.1582;938.0825;;;;
2023/05/31 10:59:25;;;;;;;24.3;5;;;;;;;22.37;51.6709;938.041;;;;
2023/05/31 11:01:50;;;;;;;13.3;4;;;;;;;22.84;49.6123;938.1293;;;;
2023/05/31 11:04:17;;;;;;;8.5;4.1;;;;;;;23.45;49.39746;938.0105;;;;
2023/05/31 11:06:42;;;;;;;6;3.4;;;;;;;23.51;49.01758;938.0344;;;;
2023/05/31 11:09:08;;;;;;;7.4;4.1;;;;;;;22.91;53.56641;937.9822;;;;
2023/05/31 11:11:35;;;;;;;6.8;3.9;;;;;;;22.65;50.60059;938.0247;;;;
2023/05/31 11:14:00;;;;;;;6.7;4.3;;;;;;;22.63;51.67676;938.0483;;;;
2023/05/31 11:16:27;;;;;;;6.2;3.4;;;;;;;22.91;51.91016;938.0055;;;;
2023/05/31 11:18:54;;;;;;;7.4;3.6;;;;;;;23.33;48.22168;937.9611;;;;
2023/05/31 11:21:20;;;;;;;7.9;3.7;;;;;;;23.9;45.7627;937.9827;;;;
2023/05/31 11:23:50;;;;;;;6.3;3.7;;;;;;;24.08;46.32324;937.9077;;;;
2023/05/31 11:26:16;;;;;;;5.7;4;;;;;;;23.51;47.98145;937.9355;;;;
2023/05/31 11:28:41;;;;;;;7.6;3.4;;;;;;;23.6;49.83789;937.9011;;;;
2023/05/31 11:31:06;;;;;;;6.9;4.2;;;;;;;23.48;48.64746;937.9849;;;;
2023/05/31 11:33:32;;;;;;;4.8;3.4;;;;;;;24.01;44.86816;937.9928;;;;
2023/05/31 11:35:56;;;;;;;6.3;3.6;;;;;;;24.33;45.24219;938.0072;;;;
2023/05/31 11:38:21;;;;;;;7.5;3.6;;;;;;;24.34;45.77344;937.9019;;;;
2023/05/31 11:40:52;;;;;;;6.6;3.9;;;;;;;24.38;47.7207;937.9228;;;;
2023/05/31 11:43:17;;;;;;;4.7;3.5;;;;;;;24.33;48.08105;937.9098;;;;
2023/05/31 11:45:42;;;;;;;6.6;3.2;;;;;;;24.32;47.27832;937.8825;;;;
2023/05/31 11:48:13;;;;;;;8.6;3.8;;;;;;;23.94;47.66309;937.9483;;;;
2023/05/31 11:50:36;;;;;;;8.8;3.6;;;;;;;24.08;46.93652;937.9336;;;;
2023/05/31 11:53:04;;;;;;;5;3.1;;;;;;;24.41;44.71973;937.8968;;;;
2023/05/31 11:55:30;;;;;;;5.9;3.2;;;;;;;24.38;44.19824;937.9049;;;;
2023/05/31 11:57:56;;;;;;;6.9;3.5;;;;;;;24.49;45.19922;937.8781;;;;
2023/05/31 12:00:22;;;;;;;4.4;3.1;;;;;;;23.71;47.77832;937.8605;;;;
2023/05/31 12:02:56;;;;;;;5.9;3.8;;;;;;;23.93;46.83691;937.8864;;;;
2023/05/31 12:05:18;;;;;;;6.5;3.2;;;;;;;23.93;46.47363;937.8476;;;;
2023/05/31 12:07:49;;;;;;;6.7;3.8;;;;;;;24.05;48.81641;937.8365;;;;
2023/05/31 12:10:21;;;;;;;6.3;3.5;;;;;;;24.57;43.54492;937.8398;;;;
2023/05/31 12:12:50;;;;;;;4;3.1;;;;;;;24.84;44.98633;937.8189;;;;
2023/05/31 12:15:15;;;;;;;7.9;3.5;;;;;;;24.79;47.07031;937.736;;;;
2023/05/31 12:17:48;;;;;;;7.3;3.5;;;;;;;25.14;45.58301;937.8412;;;;
2023/05/31 12:20:16;;;;;;;7.8;3.6;;;;;;;24.95;45.13965;937.8162;;;;
2023/05/31 12:22:41;;;;;;;6.1;3.3;;;;;;;25.27;41.98438;937.709;;;;
2023/05/31 12:25:13;;;;;;;4.9;3;;;;;;;25.33;41.69531;937.8169;;;;
2023/05/31 12:27:38;;;;;;;6.3;3.2;;;;;;;25.58;41.50586;937.769;;;;
2023/05/31 12:30:07;;;;;;;7.1;3.3;;;;;;;25.34;41.88477;937.8203;;;;
2023/05/31 12:32:32;;;;;;;4.9;3;;;;;;;25.43;41.17285;937.7086;;;;
2023/05/31 12:35:01;;;;;;;4;3.1;;;;;;;25.61;40.4209;937.7317;;;;
2023/05/31 12:37:26;;;;;;;4.3;3.1;;;;;;;25.64;43.40137;937.7592;;;;
2023/05/31 12:39:55;;;;;;;7.1;3;;;;;;;25.26;44.76855;937.7975;;;;
2023/05/31 12:42:21;;;;;;;6.8;3.4;;;;;;;25.05;44.58301;937.7276;;;;
2023/05/31 12:44:51;;;;;;;5;3.3;;;;;;;24.86;44.18652;937.6062;;;;
2023/05/31 12:47:16;;;;;;;5.2;3.1;;;;;;;25.04;41.64355;937.6367;;;;
2023/05/31 12:49:41;;;;;;;7.2;3.2;;;;;;;24.82;43.32227;937.7062;;;;
2023/05/31 12:52:09;;;;;;;7;3.1;;;;;;;25.06;42.2002;937.5754;;;;
2023/05/31 12:54:34;;;;;;;5.7;3.4;;;;;;;24.64;44.51855;937.6212;;;;
2023/05/31 12:57:03;;;;;;;6;3.1;;;;;;;24.83;43.25195;937.68;;;;
2023/05/31 12:59:28;;;;;;;8;3.2;;;;;;;24.48;45.68066;937.6794;;;;
2023/05/31 13:01:52;;;;;;;7;3.2;;;;;;;24.44;44.42773;937.6472;;;;
2023/05/31 13:04:21;;;;;;;6.4;3.3;;;;;;;24.58;45.2666;937.6283;;;;
2023/05/31 13:06:46;;;;;;;6.3;3.3;;;;;;;24.67;42.24707;937.6498;;;;
2023/05/31 13:09:13;;;;;;;7.1;3.1;;;;;;;25.06;41.62207;937.6306;;;;
2023/05/31 13:11:38;;;;;;;6.3;3;;;;;;;25.25;41.07324;937.6292;;;;
2023/05/31 13:14:05;;;;;;;7.4;3.3;;;;;;;25.37;41.06055;937.5563;;;;
2023/05/31 13:16:30;;;;;;;7.9;3.6;;;;;;;25.11;41.85156;937.5377;;;;
2023/05/31 13:18:56;;;;;;;7.6;3.5;;;;;;;25.55;41.47852;937.5977;;;;
2023/05/31 13:21:21;;;;;;;5;3.1;;;;;;;25.53;40.65039;937.5628;;;;
2023/05/31 13:23:48;;;;;;;6.4;3.4;;;;;;;25.55;43.58203;937.6017;;;;
2023/05/31 13:26:14;;;;;;;7.8;3.4;;;;;;;25.03;42.5752;937.6418;;;;
2023/05/31 13:28:40;;;;;;;8.6;3;;;;;;;25.31;42.04785;937.622;;;;
2023/05/31 13:31:05;;;;;;;5.1;3.3;;;;;;;25.41;39.0918;937.5569;;;;
2023/05/31 13:33:34;;;;;;;4.3;2.8;;;;;;;25.51;40.64746;937.5338;;;;
2023/05/31 13:36:03;;;;;;;5.8;3.2;;;;;;;25.62;40.00781;937.5094;;;;
2023/05/31 13:38:30;;;;;;;6.6;3.3;;;;;;;25.41;41.9502;937.4924;;;;
2023/05/31 13:40:54;;;;;;;5.7;3.2;;;;;;;25.32;41.91895;937.4936;;;;
2023/05/31 13:43:24;;;;;;;5.2;3.2;;;;;;;25.36;40.49316;937.4062;;;;
2023/05/31 13:45:52;;;;;;;5.8;3.1;;;;;;;25.45;40.40625;937.4942;;;;
2023/05/31 13:48:17;;;;;;;5.5;3.4;;;;;;;24.98;40.60059;937.5033;;;;
2023/05/31 13:50:43;;;;;;;6.3;3.5;;;;;;;24.46;42.30859;937.5818;;;;
2023/05/31 13:53:09;;;;;;;4.6;3.1;;;;;;;24.27;40.81934;937.5748;;;;
2023/05/31 13:55:39;;;;;;;4.4;2.8;;;;;;;23.98;42.04004;937.4847;;;;
2023/05/31 13:58:03;;;;;;;4.9;3.3;;;;;;;23.79;41.55078;937.5259;;;;
2023/05/31 14:00:31;;;;;;;5.1;3.4;;;;;;;23.7;42.13086;937.5429;;;;
2023/05/31 14:02:56;;;;;;;6.7;3.2;;;;;;;23.39;44.44141;937.4997;;;;
2023/05/31 14:05:24;;;;;;;5.3;3;;;;;;;22.75;46.81934;937.5638;;;;
2023/05/31 14:07:49;;;;;;;6;3.2;;;;;;;22.97;46.02051;937.6086;;;;
2023/05/31 14:10:20;;;;;;;5.3;3;;;;;;;22.77;45.65918;937.6013;;;;
2023/05/31 14:12:48;;;;;;;4.7;3.3;;;;;;;22.96;46.25488;937.5723;;;;
2023/05/31 14:15:15;;;;;;;7.2;3.9;;;;;;;22.68;48.52637;937.6183;;;;
2023/05/31 14:17:44;;;;;;;6.7;2.9;;;;;;;22.96;45.85449;937.5701;;;;
2023/05/31 14:20:09;;;;;;;8.2;3;;;;;;;23.13;46.53125;937.461;;;;
2023/05/31 14:22:35;;;;;;;5.9;3.3;;;;;;;22.99;48.61914;937.4802;;;;
2023/05/31 14:25:27;;;;;;;6.3;3.5;;;;;;;22.88;47.9248;937.574;;;;
2023/05/31 14:27:58;;;;;;;5;3.2;;;;;;;23.1;47.84277;937.4657;;;;
2023/05/31 14:30:28;;;;;;;5.9;3;;;;;;;23.2;46.66699;937.4891;;;;
2023/05/31 14:32:53;;;;;;;6.7;3.2;;;;;;;23.17;47.95605;937.4345;;;;
2023/05/31 14:35:23;;;;;;;5.5;3;;;;;;;22.92;47.5293;937.4677;;;;
2023/05/31 14:37:47;;;;;;;6.7;3.4;;;;;;;23.15;46.99121;937.3887;;;;
2023/05/31 14:40:17;;;;;;;5.7;3.5;;;;;;;23.59;45.4248;937.4562;;;;
2023/05/31 14:42:47;;;;;;;7.1;3.4;;;;;;;23.92;44.91797;937.3923;;;;
2023/05/31 14:45:12;;;;;;;9.2;3.5;;;;;;;24.07;44.70898;937.4119;;;;
2023/05/31 14:47:43;;;;;;;6.7;3.3;;;;;;;24.12;44.24316;937.4664;;;;
2023/05/31 14:50:17;;;;;;;5.5;3.4;;;;;;;23.86;45.19434;937.4109;;;;
2023/05/31 14:52:41;;;;;;;9;3.2;;;;;;;24.12;45.96191;937.3869;;;;
2023/05/31 14:55:14;;;;;;;6.7;3;;;;;;;24.1;43.0293;937.3674;;;;
2023/05/31 14:57:43;;;;;;;5.8;3.6;;;;;;;23.69;45.91699;937.3914;;;;
2023/05/31 15:00:08;;;;;;;7.2;3.2;;;;;;;23.6;46.34375;937.3856;;;;
2023/05/31 15:02:33;;;;;;;5.7;3.4;;;;;;;23.78;45.62207;937.3881;;;;
2023/05/31 15:05:06;;;;;;;6.4;3.4;;;;;;;23.87;44.28906;937.3797;;;;
2023/05/31 15:07:35;;;;;;;4.8;3;;;;;;;24.05;43.75391;937.3705;;;;
2023/05/31 15:10:05;;;;;;;6.8;3.8;;;;;;;24.24;42.07617;937.3794;;;;
2023/05/31 15:12:29;;;;;;;6.4;3.3;;;;;;;24.31;41.49414;937.37;;;;
2023/05/31 15:15:00;;;;;;;6.5;3.3;;;;;;;24.42;42.6709;937.4242;;;;
2023/05/31 15:17:25;;;;;;;8.8;3.8;;;;;;;24.58;41.97754;937.441;;;;
2023/05/31 15:19:57;;;;;;;7.9;3.9;;;;;;;24.58;44.85547;937.4294;;;;
2023/05/31 15:22:29;;;;;;;9.2;3.1;;;;;;;24.07;44.69824;937.467;;;;
2023/05/31 15:24:56;;;;;;;6.7;2.9;;;;;;;24.36;42.88867;937.4738;;;;
2023/05/31 15:27:21;;;;;;;6.8;3.5;;;;;;;24.64;42.59668;937.428;;;;
2023/05/31 15:29:48;;;;;;;6.3;3.5;;;;;;;24.19;44.01465;937.3691;;;;